sensor_id;sensor_type;location;lat;lon;timestamp;pressure;altitude;pressure_sealevel;temperature;humidity
80248;BME280;69560;52.206;21.018;2023-11-21T00:00:56;99458.34;;;3.43;66.58
80248;BME280;69560;52.206;21.018;2023-11-21T00:03:37;99457.83;;;3.40;66.58
80248;BME280;69560;52.206;21.018;2023-11-21T00:06:05;99463.80;;;3.38;66.56
80248;BME280;69560;52.206;21.018;2023-11-21T00:08:35;99463.00;;;3.36;66.57
80248;BME280;69560;52.206;21.018;2023-11-21T00:11:26;99461.91;;;3.36;66.60
80248;BME280;69560;52.206;21.018;2023-11-21T00:14:31;99468.05;;;3.34;66.46
80248;BME280;69560;52.206;21.018;2023-11-21T00:16:59;99469.56;;;3.31;66.51
80248;BME280;69560;52.206;21.018;2023-11-21T00:19:25;99475.48;;;3.30;66.65
80248;BME280;69560;52.206;21.018;2023-11-21T00:21:52;99478.48;;;3.29;66.58
80248;BME280;69560;52.206;21.018;2023-11-21T00:24:18;99478.70;;;3.26;66.65
80248;BME280;69560;52.206;21.018;2023-11-21T00:26:45;99478.45;;;3.23;66.63
80248;BME280;69560;52.206;21.018;2023-11-21T00:29:11;99485.51;;;3.21;66.62
80248;BME280;69560;52.206;21.018;2023-11-21T00:31:39;99491.77;;;3.16;66.65
80248;BME280;69560;52.206;21.018;2023-11-21T00:34:05;99493.48;;;3.14;66.74
80248;BME280;69560;52.206;21.018;2023-11-21T00:36:35;99488.83;;;3.13;66.78
80248;BME280;69560;52.206;21.018;2023-11-21T00:39:03;99490.74;;;3.14;66.78
80248;BME280;69560;52.206;21.018;2023-11-21T00:41:32;99494.42;;;3.18;66.79
80248;BME280;69560;52.206;21.018;2023-11-21T00:44:00;99497.15;;;3.20;66.57
80248;BME280;69560;52.206;21.018;2023-11-21T00:46:37;99498.79;;;3.20;66.63
80248;BME280;69560;52.206;21.018;2023-11-21T00:49:03;99493.50;;;3.21;66.62
80248;BME280;69560;52.206;21.018;2023-11-21T00:51:32;99498.05;;;3.19;66.56
80248;BME280;69560;52.206;21.018;2023-11-21T00:53:59;99503.16;;;3.18;66.56
80248;BME280;69560;52.206;21.018;2023-11-21T00:56:26;99507.81;;;3.17;66.57
80248;BME280;69560;52.206;21.018;2023-11-21T00:59:06;99513.94;;;3.13;66.63
80248;BME280;69560;52.206;21.018;2023-11-21T01:01:33;99517.77;;;3.10;66.57
80248;BME280;69560;52.206;21.018;2023-11-21T01:03:59;99517.98;;;3.08;66.60
80248;BME280;69560;52.206;21.018;2023-11-21T01:06:26;99514.46;;;3.06;66.59
80248;BME280;69560;52.206;21.018;2023-11-21T01:08:53;99509.97;;;3.05;66.62
80248;BME280;69560;52.206;21.018;2023-11-21T01:11:20;99513.25;;;3.07;66.63
80248;BME280;69560;52.206;21.018;2023-11-21T01:13:48;99520.27;;;3.10;66.58
80248;BME280;69560;52.206;21.018;2023-11-21T01:16:37;99519.17;;;3.12;66.53
80248;BME280;69560;52.206;21.018;2023-11-21T01:19:03;99520.59;;;3.15;66.68
80248;BME280;69560;52.206;21.018;2023-11-21T01:21:33;99522.70;;;3.17;66.52
80248;BME280;69560;52.206;21.018;2023-11-21T01:24:05;99524.79;;;3.18;66.46
80248;BME280;69560;52.206;21.018;2023-11-21T01:26:33;99523.60;;;3.16;66.47
80248;BME280;69560;52.206;21.018;2023-11-21T01:29:31;99523.04;;;3.13;66.51
80248;BME280;69560;52.206;21.018;2023-11-21T01:32:03;99521.94;;;3.09;66.41
80248;BME280;69560;52.206;21.018;2023-11-21T01:34:35;99518.92;;;3.02;66.40
80248;BME280;69560;52.206;21.018;2023-11-21T01:37:05;99523.98;;;3.01;66.26
80248;BME280;69560;52.206;21.018;2023-11-21T01:39:35;99526.42;;;2.97;66.25
80248;BME280;69560;52.206;21.018;2023-11-21T01:42:02;99529.52;;;2.94;66.15
80248;BME280;69560;52.206;21.018;2023-11-21T01:44:30;99534.38;;;2.92;66.13
80248;BME280;69560;52.206;21.018;2023-11-21T01:46:59;99529.67;;;2.90;66.25
80248;BME280;69560;52.206;21.018;2023-11-21T01:49:26;99539.73;;;2.96;66.08
80248;BME280;69560;52.206;21.018;2023-11-21T01:52:08;99536.52;;;2.97;66.10
80248;BME280;69560;52.206;21.018;2023-11-21T01:54:35;99536.03;;;2.97;66.18
80248;BME280;69560;52.206;21.018;2023-11-21T01:57:04;99536.31;;;2.96;66.16
80248;BME280;69560;52.206;21.018;2023-11-21T01:59:39;99530.76;;;2.94;66.07
80248;BME280;69560;52.206;21.018;2023-11-21T02:02:10;99532.86;;;2.92;66.22
80248;BME280;69560;52.206;21.018;2023-11-21T02:05:02;99532.88;;;2.90;66.06
80248;BME280;69560;52.206;21.018;2023-11-21T02:07:35;99532.41;;;2.82;65.90
80248;BME280;69560;52.206;21.018;2023-11-21T02:10:06;99536.88;;;2.76;65.87
80248;BME280;69560;52.206;21.018;2023-11-21T02:12:32;99538.02;;;2.71;65.78
80248;BME280;69560;52.206;21.018;2023-11-21T02:15:12;99541.42;;;2.66;65.91
80248;BME280;69560;52.206;21.018;2023-11-21T02:17:50;99549.91;;;2.65;65.87
80248;BME280;69560;52.206;21.018;2023-11-21T02:20:23;99545.44;;;2.64;66.04
80248;BME280;69560;52.206;21.018;2023-11-21T02:22:52;99547.38;;;2.68;66.10
80248;BME280;69560;52.206;21.018;2023-11-21T02:25:32;99551.23;;;2.73;66.13
80248;BME280;69560;52.206;21.018;2023-11-21T02:28:03;99550.23;;;2.75;66.09
80248;BME280;69560;52.206;21.018;2023-11-21T02:30:32;99552.17;;;2.79;66.18
80248;BME280;69560;52.206;21.018;2023-11-21T02:32:59;99552.45;;;2.80;66.12
80248;BME280;69560;52.206;21.018;2023-11-21T02:35:28;99550.55;;;2.80;66.02
80248;BME280;69560;52.206;21.018;2023-11-21T02:37:54;99551.01;;;2.79;66.04
80248;BME280;69560;52.206;21.018;2023-11-21T02:40:21;99556.88;;;2.79;66.00
80248;BME280;69560;52.206;21.018;2023-11-21T02:42:47;99561.50;;;2.77;65.93
80248;BME280;69560;52.206;21.018;2023-11-21T02:45:15;99563.33;;;2.74;65.98
80248;BME280;69560;52.206;21.018;2023-11-21T02:47:45;99558.44;;;2.71;65.93
80248;BME280;69560;52.206;21.018;2023-11-21T02:50:12;99557.73;;;2.67;66.01
80248;BME280;69560;52.206;21.018;2023-11-21T02:52:39;99561.35;;;2.68;65.96
80248;BME280;69560;52.206;21.018;2023-11-21T02:55:10;99559.55;;;2.70;65.97
80248;BME280;69560;52.206;21.018;2023-11-21T02:57:37;99561.88;;;2.73;66.04
80248;BME280;69560;52.206;21.018;2023-11-21T03:00:04;99559.05;;;2.77;66.07
80248;BME280;69560;52.206;21.018;2023-11-21T03:02:47;99560.54;;;2.81;66.13
80248;BME280;69560;52.206;21.018;2023-11-21T03:05:14;99561.81;;;2.83;66.13
80248;BME280;69560;52.206;21.018;2023-11-21T03:07:40;99564.30;;;2.83;65.99
80248;BME280;69560;52.206;21.018;2023-11-21T03:10:08;99563.55;;;2.82;65.95
80248;BME280;69560;52.206;21.018;2023-11-21T03:12:41;99564.02;;;2.82;66.07
80248;BME280;69560;52.206;21.018;2023-11-21T03:15:10;99566.02;;;2.79;65.92
80248;BME280;69560;52.206;21.018;2023-11-21T03:17:36;99565.98;;;2.78;65.83
80248;BME280;69560;52.206;21.018;2023-11-21T03:20:11;99569.54;;;2.75;65.75
80248;BME280;69560;52.206;21.018;2023-11-21T03:22:39;99570.06;;;2.72;65.85
80248;BME280;69560;52.206;21.018;2023-11-21T03:25:06;99574.86;;;2.73;65.61
80248;BME280;69560;52.206;21.018;2023-11-21T03:27:36;99576.13;;;2.73;65.77
80248;BME280;69560;52.206;21.018;2023-11-21T03:30:11;99576.94;;;2.72;65.86
80248;BME280;69560;52.206;21.018;2023-11-21T03:32:38;99582.61;;;2.77;65.77
80248;BME280;69560;52.206;21.018;2023-11-21T03:35:05;99579.25;;;2.77;65.66
80248;BME280;69560;52.206;21.018;2023-11-21T03:37:32;99582.00;;;2.75;65.79
80248;BME280;69560;52.206;21.018;2023-11-21T03:39:58;99577.71;;;2.74;65.78
80248;BME280;69560;52.206;21.018;2023-11-21T03:42:25;99579.83;;;2.74;65.85
80248;BME280;69560;52.206;21.018;2023-11-21T03:45:10;99582.02;;;2.74;65.87
80248;BME280;69560;52.206;21.018;2023-11-21T03:47:39;99590.25;;;2.70;65.72
80248;BME280;69560;52.206;21.018;2023-11-21T03:50:08;99586.35;;;2.66;65.71
80248;BME280;69560;52.206;21.018;2023-11-21T03:52:36;99587.20;;;2.62;65.63
80248;BME280;69560;52.206;21.018;2023-11-21T03:55:03;99588.36;;;2.60;65.76
80248;BME280;69560;52.206;21.018;2023-11-21T03:57:30;99597.29;;;2.60;65.71
80248;BME280;69560;52.206;21.018;2023-11-21T03:59:57;99603.54;;;2.62;65.69
80248;BME280;69560;52.206;21.018;2023-11-21T04:02:23;99606.96;;;2.64;65.68
80248;BME280;69560;52.206;21.018;2023-11-21T04:04:52;99607.38;;;2.66;65.74
80248;BME280;69560;52.206;21.018;2023-11-21T04:07:40;99610.76;;;2.67;65.74
80248;BME280;69560;52.206;21.018;2023-11-21T04:10:10;99615.42;;;2.68;65.84
80248;BME280;69560;52.206;21.018;2023-11-21T04:12:40;99613.06;;;2.68;65.71
80248;BME280;69560;52.206;21.018;2023-11-21T04:15:07;99612.23;;;2.67;65.76
80248;BME280;69560;52.206;21.018;2023-11-21T04:17:38;99615.31;;;2.63;65.66
80248;BME280;69560;52.206;21.018;2023-11-21T04:20:26;99616.95;;;2.59;65.54
80248;BME280;69560;52.206;21.018;2023-11-21T04:23:12;99617.26;;;2.55;65.65
80248;BME280;69560;52.206;21.018;2023-11-21T04:25:40;99617.63;;;2.51;65.61
80248;BME280;69560;52.206;21.018;2023-11-21T04:28:09;99619.48;;;2.48;65.68
80248;BME280;69560;52.206;21.018;2023-11-21T04:30:38;99622.87;;;2.47;65.77
80248;BME280;69560;52.206;21.018;2023-11-21T04:33:19;99621.02;;;2.45;65.71
80248;BME280;69560;52.206;21.018;2023-11-21T04:35:47;99620.54;;;2.47;65.84
80248;BME280;69560;52.206;21.018;2023-11-21T04:38:20;99619.72;;;2.52;65.89
80248;BME280;69560;52.206;21.018;2023-11-21T04:40:53;99627.11;;;2.56;65.83
80248;BME280;69560;52.206;21.018;2023-11-21T04:43:21;99631.27;;;2.59;66.01
80248;BME280;69560;52.206;21.018;2023-11-21T04:45:50;99636.99;;;2.61;65.94
80248;BME280;69560;52.206;21.018;2023-11-21T04:48:18;99635.72;;;2.62;65.99
80248;BME280;69560;52.206;21.018;2023-11-21T04:50:44;99636.00;;;2.62;65.98
80248;BME280;69560;52.206;21.018;2023-11-21T04:53:11;99640.58;;;2.59;65.87
80248;BME280;69560;52.206;21.018;2023-11-21T04:55:41;99647.23;;;2.55;65.85
80248;BME280;69560;52.206;21.018;2023-11-21T04:58:08;99643.91;;;2.52;65.81
80248;BME280;69560;52.206;21.018;2023-11-21T05:00:39;99645.45;;;2.50;65.93
80248;BME280;69560;52.206;21.018;2023-11-21T05:03:11;99647.98;;;2.49;65.88
80248;BME280;69560;52.206;21.018;2023-11-21T05:05:38;99644.55;;;2.44;65.81
80248;BME280;69560;52.206;21.018;2023-11-21T05:08:05;99651.21;;;2.44;65.78
80248;BME280;69560;52.206;21.018;2023-11-21T05:10:31;99653.47;;;2.44;65.77
80248;BME280;69560;52.206;21.018;2023-11-21T05:13:11;99654.61;;;2.47;66.05
80248;BME280;69560;52.206;21.018;2023-11-21T05:15:38;99652.85;;;2.52;66.09
80248;BME280;69560;52.206;21.018;2023-11-21T05:18:05;99659.86;;;2.56;66.00
80248;BME280;69560;52.206;21.018;2023-11-21T05:20:32;99659.40;;;2.56;66.02
80248;BME280;69560;52.206;21.018;2023-11-21T05:22:59;99671.21;;;2.60;66.04
80248;BME280;69560;52.206;21.018;2023-11-21T05:25:26;99667.83;;;2.57;65.96
80248;BME280;69560;52.206;21.018;2023-11-21T05:27:52;99675.27;;;2.56;66.01
80248;BME280;69560;52.206;21.018;2023-11-21T05:30:21;99676.76;;;2.54;65.93
80248;BME280;69560;52.206;21.018;2023-11-21T05:32:48;99675.25;;;2.50;66.00
80248;BME280;69560;52.206;21.018;2023-11-21T05:35:16;99675.55;;;2.48;65.91
80248;BME280;69560;52.206;21.018;2023-11-21T05:37:42;99682.06;;;2.46;65.93
80248;BME280;69560;52.206;21.018;2023-11-21T05:40:10;99686.60;;;2.45;65.78
80248;BME280;69560;52.206;21.018;2023-11-21T05:42:39;99688.29;;;2.44;65.89
80248;BME280;69560;52.206;21.018;2023-11-21T05:45:43;99696.14;;;2.43;65.65
80248;BME280;69560;52.206;21.018;2023-11-21T05:48:12;99697.34;;;2.45;65.67
80248;BME280;69560;52.206;21.018;2023-11-21T05:50:39;99695.96;;;2.48;65.65
80248;BME280;69560;52.206;21.018;2023-11-21T05:53:05;99695.41;;;2.51;65.68
80248;BME280;69560;52.206;21.018;2023-11-21T05:55:32;99697.03;;;2.57;65.81
80248;BME280;69560;52.206;21.018;2023-11-21T05:57:59;99698.27;;;2.57;65.60
80248;BME280;69560;52.206;21.018;2023-11-21T06:00:27;99700.25;;;2.57;65.64
80248;BME280;69560;52.206;21.018;2023-11-21T06:02:54;99701.80;;;2.56;65.65
80248;BME280;69560;52.206;21.018;2023-11-21T06:05:23;99706.59;;;2.53;65.46
80248;BME280;69560;52.206;21.018;2023-11-21T06:07:50;99705.59;;;2.48;65.43
80248;BME280;69560;52.206;21.018;2023-11-21T06:10:20;99708.31;;;2.44;65.45
80248;BME280;69560;52.206;21.018;2023-11-21T06:12:47;99705.59;;;2.41;65.48
80248;BME280;69560;52.206;21.018;2023-11-21T06:15:14;99708.70;;;2.39;65.50
80248;BME280;69560;52.206;21.018;2023-11-21T06:17:42;99714.20;;;2.35;65.38
80248;BME280;69560;52.206;21.018;2023-11-21T06:20:41;99718.66;;;2.34;65.44
80248;BME280;69560;52.206;21.018;2023-11-21T06:23:07;99727.21;;;2.36;65.65
80248;BME280;69560;52.206;21.018;2023-11-21T06:25:44;99727.90;;;2.39;65.59
80248;BME280;69560;52.206;21.018;2023-11-21T06:28:11;99730.15;;;2.43;65.50
80248;BME280;69560;52.206;21.018;2023-11-21T06:30:44;99734.58;;;2.46;65.51
80248;BME280;69560;52.206;21.018;2023-11-21T06:33:11;99731.99;;;2.49;65.59
80248;BME280;69560;52.206;21.018;2023-11-21T06:35:38;99731.27;;;2.50;65.70
80248;BME280;69560;52.206;21.018;2023-11-21T06:38:04;99740.33;;;2.52;65.57
80248;BME280;69560;52.206;21.018;2023-11-21T06:40:31;99747.35;;;2.52;65.72
80248;BME280;69560;52.206;21.018;2023-11-21T06:43:00;99745.75;;;2.51;65.69
80248;BME280;69560;52.206;21.018;2023-11-21T06:45:32;99750.55;;;2.51;65.74
80248;BME280;69560;52.206;21.018;2023-11-21T06:47:58;99758.63;;;2.52;65.63
80248;BME280;69560;52.206;21.018;2023-11-21T06:50:24;99757.09;;;2.49;65.67
80248;BME280;69560;52.206;21.018;2023-11-21T06:52:51;99762.98;;;2.49;65.64
80248;BME280;69560;52.206;21.018;2023-11-21T06:55:17;99760.67;;;2.48;65.54
80248;BME280;69560;52.206;21.018;2023-11-21T06:57:45;99770.20;;;2.47;65.47
80248;BME280;69560;52.206;21.018;2023-11-21T07:00:17;99768.52;;;2.46;65.59
80248;BME280;69560;52.206;21.018;2023-11-21T07:02:46;99769.10;;;2.46;65.39
80248;BME280;69560;52.206;21.018;2023-11-21T07:05:13;99770.27;;;2.48;65.32
80248;BME280;69560;52.206;21.018;2023-11-21T07:07:41;99772.64;;;2.52;65.50
80248;BME280;69560;52.206;21.018;2023-11-21T07:10:17;99781.52;;;2.57;65.39
80248;BME280;69560;52.206;21.018;2023-11-21T07:12:43;99784.60;;;2.59;65.36
80248;BME280;69560;52.206;21.018;2023-11-21T07:15:49;99786.34;;;2.61;65.24
80248;BME280;69560;52.206;21.018;2023-11-21T07:18:18;99783.69;;;2.60;65.24
80248;BME280;69560;52.206;21.018;2023-11-21T07:20:45;99783.02;;;2.59;65.35
80248;BME280;69560;52.206;21.018;2023-11-21T07:23:15;99786.17;;;2.59;65.23
80248;BME280;69560;52.206;21.018;2023-11-21T07:25:42;99785.77;;;2.59;65.29
80248;BME280;69560;52.206;21.018;2023-11-21T07:28:09;99789.25;;;2.56;65.34
80248;BME280;69560;52.206;21.018;2023-11-21T07:30:36;99793.48;;;2.53;65.35
80248;BME280;69560;52.206;21.018;2023-11-21T07:33:05;99796.51;;;2.49;65.11
80248;BME280;69560;52.206;21.018;2023-11-21T07:35:38;99796.55;;;2.44;65.10
80248;BME280;69560;52.206;21.018;2023-11-21T07:38:15;99797.84;;;2.40;65.03
80248;BME280;69560;52.206;21.018;2023-11-21T07:41:05;99801.06;;;2.41;65.22
80248;BME280;69560;52.206;21.018;2023-11-21T07:44:09;99802.83;;;2.43;65.25
80248;BME280;69560;52.206;21.018;2023-11-21T07:46:36;99800.95;;;2.47;65.28
80248;BME280;69560;52.206;21.018;2023-11-21T07:49:02;99795.12;;;2.51;65.30
80248;BME280;69560;52.206;21.018;2023-11-21T07:51:29;99801.63;;;2.56;65.42
80248;BME280;69560;52.206;21.018;2023-11-21T07:54:07;99801.55;;;2.59;65.41
80248;BME280;69560;52.206;21.018;2023-11-21T07:56:35;99800.13;;;2.60;65.48
80248;BME280;69560;52.206;21.018;2023-11-21T07:59:01;99802.09;;;2.62;65.51
80248;BME280;69560;52.206;21.018;2023-11-21T08:01:29;99802.80;;;2.62;65.60
80248;BME280;69560;52.206;21.018;2023-11-21T08:04:11;99802.31;;;2.62;65.44
80248;BME280;69560;52.206;21.018;2023-11-21T08:06:39;99801.89;;;2.61;65.49
80248;BME280;69560;52.206;21.018;2023-11-21T08:09:11;99801.02;;;2.59;65.37
80248;BME280;69560;52.206;21.018;2023-11-21T08:11:43;99802.66;;;2.57;65.19
80248;BME280;69560;52.206;21.018;2023-11-21T08:14:09;99808.10;;;2.53;65.27
80248;BME280;69560;52.206;21.018;2023-11-21T08:16:36;99813.05;;;2.52;65.17
80248;BME280;69560;52.206;21.018;2023-11-21T08:19:02;99816.84;;;2.52;65.18
80248;BME280;69560;52.206;21.018;2023-11-21T08:21:30;99818.98;;;2.55;65.10
80248;BME280;69560;52.206;21.018;2023-11-21T08:23:57;99820.73;;;2.59;65.22
80248;BME280;69560;52.206;21.018;2023-11-21T08:26:24;99826.63;;;2.65;65.37
80248;BME280;69560;52.206;21.018;2023-11-21T08:28:50;99826.73;;;2.70;65.21
80248;BME280;69560;52.206;21.018;2023-11-21T08:31:24;99828.95;;;2.74;65.28
80248;BME280;69560;52.206;21.018;2023-11-21T08:33:54;99832.34;;;2.76;65.22
80248;BME280;69560;52.206;21.018;2023-11-21T08:36:25;99833.11;;;2.78;65.28
80248;BME280;69560;52.206;21.018;2023-11-21T08:38:52;99836.27;;;2.78;65.34
80248;BME280;69560;52.206;21.018;2023-11-21T08:41:18;99841.10;;;2.79;65.34
80248;BME280;69560;52.206;21.018;2023-11-21T08:43:49;99842.44;;;2.80;65.21
80248;BME280;69560;52.206;21.018;2023-11-21T08:46:19;99845.00;;;2.79;65.03
80248;BME280;69560;52.206;21.018;2023-11-21T08:48:47;99846.93;;;2.79;65.02
80248;BME280;69560;52.206;21.018;2023-11-21T08:51:14;99849.03;;;2.78;65.19
80248;BME280;69560;52.206;21.018;2023-11-21T08:53:40;99846.88;;;2.77;65.07
80248;BME280;69560;52.206;21.018;2023-11-21T08:56:07;99848.67;;;2.77;65.05
80248;BME280;69560;52.206;21.018;2023-11-21T08:58:35;99849.29;;;2.79;64.96
80248;BME280;69560;52.206;21.018;2023-11-21T09:01:04;99856.82;;;2.83;65.01
80248;BME280;69560;52.206;21.018;2023-11-21T09:03:30;99855.69;;;2.85;64.84
80248;BME280;69560;52.206;21.018;2023-11-21T09:05:58;99859.55;;;2.89;64.87
80248;BME280;69560;52.206;21.018;2023-11-21T09:08:26;99856.82;;;2.94;64.97
80248;BME280;69560;52.206;21.018;2023-11-21T09:10:54;99859.65;;;2.96;64.93
80248;BME280;69560;52.206;21.018;2023-11-21T09:13:39;99864.58;;;2.97;65.05
80248;BME280;69560;52.206;21.018;2023-11-21T09:16:08;99866.75;;;2.97;64.79
80248;BME280;69560;52.206;21.018;2023-11-21T09:18:36;99868.78;;;2.95;64.93
80248;BME280;69560;52.206;21.018;2023-11-21T09:21:03;99874.20;;;2.95;64.96
80248;BME280;69560;52.206;21.018;2023-11-21T09:23:35;99871.82;;;2.93;64.78
80248;BME280;69560;52.206;21.018;2023-11-21T09:26:18;99871.85;;;2.92;64.84
80248;BME280;69560;52.206;21.018;2023-11-21T09:28:44;99875.24;;;2.90;64.84
80248;BME280;69560;52.206;21.018;2023-11-21T09:31:13;99881.07;;;2.90;64.95
80248;BME280;69560;52.206;21.018;2023-11-21T09:33:43;99881.39;;;2.90;64.88
80248;BME280;69560;52.206;21.018;2023-11-21T09:36:14;99877.34;;;2.90;64.84
80248;BME280;69560;52.206;21.018;2023-11-21T09:38:43;99878.91;;;2.92;64.85
80248;BME280;69560;52.206;21.018;2023-11-21T09:41:23;99880.15;;;2.96;64.90
80248;BME280;69560;52.206;21.018;2023-11-21T09:43:56;99876.20;;;3.02;64.79
80248;BME280;69560;52.206;21.018;2023-11-21T09:46:27;99874.64;;;3.08;64.86
80248;BME280;69560;52.206;21.018;2023-11-21T09:48:54;99873.38;;;3.12;64.88
80248;BME280;69560;52.206;21.018;2023-11-21T09:51:34;99876.26;;;3.18;64.90
80248;BME280;69560;52.206;21.018;2023-11-21T09:54:11;99871.27;;;3.22;64.87
80248;BME280;69560;52.206;21.018;2023-11-21T09:56:38;99877.13;;;3.24;64.73
80248;BME280;69560;52.206;21.018;2023-11-21T09:59:05;99875.71;;;3.25;64.77
80248;BME280;69560;52.206;21.018;2023-11-21T10:01:36;99880.53;;;3.27;64.58
80248;BME280;69560;52.206;21.018;2023-11-21T10:04:04;99882.39;;;3.26;64.66
80248;BME280;69560;52.206;21.018;2023-11-21T10:06:32;99885.18;;;3.27;64.73
80248;BME280;69560;52.206;21.018;2023-11-21T10:09:00;99884.31;;;3.27;64.48
80248;BME280;69560;52.206;21.018;2023-11-21T10:11:28;99887.86;;;3.29;64.48
80248;BME280;69560;52.206;21.018;2023-11-21T10:13:58;99889.60;;;3.29;64.42
80248;BME280;69560;52.206;21.018;2023-11-21T10:16:26;99892.83;;;3.30;64.52
80248;BME280;69560;52.206;21.018;2023-11-21T10:18:55;99892.39;;;3.33;64.44
80248;BME280;69560;52.206;21.018;2023-11-21T10:21:22;99895.63;;;3.35;64.26
80248;BME280;69560;52.206;21.018;2023-11-21T10:24:20;99893.33;;;3.42;64.31
80248;BME280;69560;52.206;21.018;2023-11-21T10:26:47;99894.20;;;3.51;64.19
80248;BME280;69560;52.206;21.018;2023-11-21T10:29:15;99895.27;;;3.58;64.25
80248;BME280;69560;52.206;21.018;2023-11-21T10:31:45;99891.50;;;3.64;64.17
80248;BME280;69560;52.206;21.018;2023-11-21T10:34:16;99897.91;;;3.65;64.09
80248;BME280;69560;52.206;21.018;2023-11-21T10:36:46;99894.92;;;3.67;64.11
80248;BME280;69560;52.206;21.018;2023-11-21T10:39:20;99896.62;;;3.70;64.09
80248;BME280;69560;52.206;21.018;2023-11-21T10:51:08;99907.94;;;3.79;63.92
80248;BME280;69560;52.206;21.018;2023-11-21T10:53:39;99905.67;;;3.81;63.89
80248;BME280;69560;52.206;21.018;2023-11-21T10:56:13;99906.91;;;3.84;63.83
80248;BME280;69560;52.206;21.018;2023-11-21T10:58:49;99910.08;;;3.85;63.74
80248;BME280;69560;52.206;21.018;2023-11-21T11:01:19;99906.84;;;3.85;63.62
80248;BME280;69560;52.206;21.018;2023-11-21T11:03:50;99910.63;;;3.85;63.66
80248;BME280;69560;52.206;21.018;2023-11-21T11:06:21;99912.52;;;3.83;63.49
80248;BME280;69560;52.206;21.018;2023-11-21T11:08:53;99914.36;;;3.82;63.46
80248;BME280;69560;52.206;21.018;2023-11-21T11:11:21;99916.77;;;3.83;63.40
80248;BME280;69560;52.206;21.018;2023-11-21T11:13:49;99917.39;;;3.86;63.43
80248;BME280;69560;52.206;21.018;2023-11-21T11:16:17;99919.06;;;3.88;63.51
80248;BME280;69560;52.206;21.018;2023-11-21T11:18:44;99920.13;;;3.89;63.55
80248;BME280;69560;52.206;21.018;2023-11-21T11:21:23;99916.77;;;3.90;63.36
80248;BME280;69560;52.206;21.018;2023-11-21T11:27:09;99918.63;;;3.89;63.45
80248;BME280;69560;52.206;21.018;2023-11-21T11:29:54;99922.23;;;3.87;63.45
80248;BME280;69560;52.206;21.018;2023-11-21T11:32:58;99925.48;;;3.82;63.22
80248;BME280;69560;52.206;21.018;2023-11-21T11:35:41;99923.90;;;3.76;63.13
80248;BME280;69560;52.206;21.018;2023-11-21T11:38:09;99926.55;;;3.72;63.16
80248;BME280;69560;52.206;21.018;2023-11-21T11:40:54;99926.89;;;3.69;63.18
80248;BME280;69560;52.206;21.018;2023-11-21T11:43:25;99926.45;;;3.68;63.29
80248;BME280;69560;52.206;21.018;2023-11-21T11:45:56;99925.66;;;3.64;63.31
80248;BME280;69560;52.206;21.018;2023-11-21T11:48:22;99931.54;;;3.60;63.21
80248;BME280;69560;52.206;21.018;2023-11-21T11:51:18;99932.08;;;3.58;63.09
80248;BME280;69560;52.206;21.018;2023-11-21T11:53:47;99932.27;;;3.55;63.09
80248;BME280;69560;52.206;21.018;2023-11-21T11:56:26;99932.25;;;3.52;63.11
80248;BME280;69560;52.206;21.018;2023-11-21T11:58:55;99933.15;;;3.46;62.79
80248;BME280;69560;52.206;21.018;2023-11-21T12:01:24;99933.58;;;3.43;62.89
80248;BME280;69560;52.206;21.018;2023-11-21T12:06:43;99938.02;;;3.40;63.07
80248;BME280;69560;52.206;21.018;2023-11-21T12:09:18;99938.64;;;3.38;63.14
80248;BME280;69560;52.206;21.018;2023-11-21T12:11:46;99940.98;;;3.35;63.28
80248;BME280;69560;52.206;21.018;2023-11-21T12:14:14;99942.48;;;3.35;63.19
80248;BME280;69560;52.206;21.018;2023-11-21T12:16:41;99944.17;;;3.33;63.17
80248;BME280;69560;52.206;21.018;2023-11-21T12:19:12;99950.91;;;3.29;62.98
80248;BME280;69560;52.206;21.018;2023-11-21T12:21:39;99950.69;;;3.24;63.02
80248;BME280;69560;52.206;21.018;2023-11-21T12:24:10;99951.70;;;3.20;62.99
80248;BME280;69560;52.206;21.018;2023-11-21T12:26:41;99952.20;;;3.15;63.13
80248;BME280;69560;52.206;21.018;2023-11-21T12:29:08;99952.33;;;3.13;62.97
80248;BME280;69560;52.206;21.018;2023-11-21T12:31:36;99953.08;;;3.11;63.03
80248;BME280;69560;52.206;21.018;2023-11-21T12:34:04;99957.11;;;3.08;63.07
80248;BME280;69560;52.206;21.018;2023-11-21T12:36:30;99959.19;;;3.05;63.04
80248;BME280;69560;52.206;21.018;2023-11-21T12:38:57;99964.08;;;3.08;63.09
80248;BME280;69560;52.206;21.018;2023-11-21T12:41:23;99964.81;;;3.10;63.00
80248;BME280;69560;52.206;21.018;2023-11-21T12:43:50;99967.15;;;3.14;63.00
80248;BME280;69560;52.206;21.018;2023-11-21T12:46:17;99964.80;;;3.17;63.14
80248;BME280;69560;52.206;21.018;2023-11-21T12:48:44;99968.88;;;3.17;63.09
80248;BME280;69560;52.206;21.018;2023-11-21T12:51:14;99973.38;;;3.15;63.01
80248;BME280;69560;52.206;21.018;2023-11-21T12:53:55;99974.34;;;3.13;63.08
80248;BME280;69560;52.206;21.018;2023-11-21T12:56:24;99969.45;;;3.14;63.15
80248;BME280;69560;52.206;21.018;2023-11-21T12:58:54;99964.90;;;3.12;63.02
80248;BME280;69560;52.206;21.018;2023-11-21T13:01:25;99972.41;;;3.12;63.08
80248;BME280;69560;52.206;21.018;2023-11-21T13:03:57;99976.89;;;3.11;63.11
80248;BME280;69560;52.206;21.018;2023-11-21T13:06:33;99974.19;;;3.08;63.06
80248;BME280;69560;52.206;21.018;2023-11-21T13:09:15;99981.48;;;3.09;62.90
80248;BME280;69560;52.206;21.018;2023-11-21T13:11:47;99982.30;;;3.06;62.86
80248;BME280;69560;52.206;21.018;2023-11-21T13:14:36;99988.61;;;3.03;62.93
80248;BME280;69560;52.206;21.018;2023-11-21T13:17:25;99985.23;;;3.00;62.84
80248;BME280;69560;52.206;21.018;2023-11-21T13:19:52;99991.48;;;2.96;62.85
80248;BME280;69560;52.206;21.018;2023-11-21T13:23:24;99992.86;;;2.94;63.10
80248;BME280;69560;52.206;21.018;2023-11-21T13:26:25;99991.04;;;2.91;62.85
80248;BME280;69560;52.206;21.018;2023-11-21T13:28:52;99994.35;;;2.89;62.71
80248;BME280;69560;52.206;21.018;2023-11-21T13:31:18;99996.25;;;2.82;62.87
80248;BME280;69560;52.206;21.018;2023-11-21T13:34:24;100005.67;;;2.84;63.18
80248;BME280;69560;52.206;21.018;2023-11-21T13:36:54;100011.92;;;2.86;63.04